createdAt,value
2019-03-23T00:02:03.301Z,1.87
2019-03-23T00:04:31.605Z,1.40
2019-03-23T00:07:00.132Z,1.50
2019-03-23T00:09:28.434Z,1.50
2019-03-23T00:11:56.690Z,1.60
2019-03-23T00:14:24.973Z,1.50
2019-03-23T00:16:53.214Z,1.80
2019-03-23T00:19:21.457Z,1.43
2019-03-23T00:21:49.772Z,1.37
2019-03-23T00:24:18.096Z,1.67
2019-03-23T00:26:46.399Z,1.53
2019-03-23T00:29:14.666Z,1.60
2019-03-23T00:31:43.058Z,1.40
2019-03-23T00:34:11.371Z,1.53
2019-03-23T00:36:41.772Z,1.50
2019-03-23T00:39:09.705Z,1.50
2019-03-23T00:41:38.016Z,1.70
2019-03-23T00:44:07.507Z,1.50
2019-03-23T00:46:36.045Z,1.70
2019-03-23T00:49:04.345Z,1.60
2019-03-23T00:51:32.656Z,1.70
2019-03-23T00:54:00.948Z,2.03
2019-03-23T00:56:29.256Z,1.80
2019-03-23T00:58:57.536Z,1.67
2019-03-23T01:01:25.845Z,1.77
2019-03-23T01:03:54.126Z,1.97
2019-03-23T01:06:22.396Z,1.80
2019-03-23T01:08:50.672Z,1.90
2019-03-23T01:11:18.916Z,1.70
2019-03-23T01:13:47.216Z,1.90
2019-03-23T01:16:15.469Z,1.90
2019-03-23T01:18:43.744Z,1.67
2019-03-23T01:21:11.987Z,1.60
2019-03-23T01:23:40.208Z,2.10
2019-03-23T01:26:08.460Z,2.03
2019-03-23T01:28:36.811Z,2.50
2019-03-23T01:31:05.130Z,1.93
2019-03-23T01:33:33.346Z,2.20
2019-03-23T01:36:01.663Z,2.03
2019-03-23T01:38:29.958Z,2.20
2019-03-23T01:40:58.248Z,2.27
2019-03-23T01:43:26.568Z,2.10
2019-03-23T01:45:54.888Z,1.93
2019-03-23T01:48:23.110Z,2.13
2019-03-23T01:50:51.428Z,2.07
2019-03-23T01:53:19.857Z,2.10
2019-03-23T01:55:48.295Z,1.93
2019-03-23T01:58:16.669Z,2.00
2019-03-23T02:00:44.948Z,2.20
2019-03-23T02:03:13.176Z,2.23
2019-03-23T02:05:41.484Z,2.30
2019-03-23T02:08:09.796Z,2.43
2019-03-23T02:10:38.101Z,2.47
2019-03-23T02:13:06.416Z,2.03
2019-03-23T02:15:34.832Z,2.10
2019-03-23T02:18:03.186Z,2.57
2019-03-23T02:20:31.435Z,2.40
2019-03-23T02:22:59.721Z,2.33
2019-03-23T02:25:28.050Z,2.80
2019-03-23T02:27:56.345Z,2.30
2019-03-23T02:30:24.658Z,2.60
2019-03-23T02:32:52.898Z,2.33
2019-03-23T02:35:21.243Z,2.60
2019-03-23T02:37:49.551Z,3.17
2019-03-23T02:40:17.843Z,2.47
2019-03-23T02:42:46.445Z,2.50
2019-03-23T02:45:14.950Z,3.13
2019-03-23T02:47:43.345Z,3.00
2019-03-23T02:50:11.819Z,2.70
2019-03-23T02:52:40.047Z,2.50
2019-03-23T02:55:08.541Z,2.63
2019-03-23T02:57:36.850Z,2.40
2019-03-23T03:00:06.855Z,3.30
2019-03-23T03:02:35.186Z,2.80
2019-03-23T03:05:03.623Z,3.20
2019-03-23T03:07:41.861Z,2.70
2019-03-23T03:10:01.927Z,2.50
2019-03-23T03:12:30.272Z,2.67
2019-03-23T03:14:58.663Z,2.80
2019-03-23T03:17:26.927Z,2.57
2019-03-23T03:19:55.141Z,2.80
2019-03-23T03:22:23.482Z,3.13
2019-03-23T03:24:51.946Z,2.90
2019-03-23T03:27:20.230Z,3.10
2019-03-23T03:29:48.520Z,3.03
2019-03-23T03:32:16.793Z,2.70
2019-03-23T03:34:45.096Z,2.70
2019-03-23T03:37:13.359Z,2.90
2019-03-23T03:39:41.646Z,2.70
2019-03-23T03:42:09.966Z,2.97
2019-03-23T03:44:38.285Z,3.17
2019-03-23T03:47:06.608Z,3.03
2019-03-23T03:49:34.885Z,3.00
2019-03-23T03:52:03.170Z,3.50
2019-03-23T03:54:31.504Z,3.47
2019-03-23T03:56:59.717Z,3.60
2019-03-23T03:59:28.015Z,3.50
2019-03-23T04:01:56.324Z,3.07
2019-03-23T04:04:26.676Z,3.40
2019-03-23T04:06:54.608Z,3.53
2019-03-23T04:09:22.974Z,3.73
2019-03-23T04:11:51.421Z,3.90
2019-03-23T04:14:19.777Z,3.67
2019-03-23T04:16:48.078Z,4.33
2019-03-23T04:19:16.402Z,3.53
2019-03-23T04:21:44.714Z,3.90
2019-03-23T04:24:13.159Z,3.90
2019-03-23T04:26:41.487Z,3.90
2019-03-23T04:29:09.823Z,4.20
2019-03-23T04:31:39.237Z,4.13
2019-03-23T04:34:07.636Z,4.13
2019-03-23T04:36:35.909Z,4.27
2019-03-23T04:39:05.365Z,3.90
2019-03-23T04:41:33.615Z,4.30
2019-03-23T04:44:01.905Z,4.90
2019-03-23T04:46:30.208Z,4.63
2019-03-23T04:48:58.512Z,4.40
2019-03-23T04:51:26.856Z,5.43
2019-03-23T04:53:55.064Z,4.77
2019-03-23T04:56:23.434Z,4.53
2019-03-23T04:58:51.798Z,5.30
2019-03-23T05:01:20.196Z,5.07
2019-03-23T05:03:48.534Z,4.97
2019-03-23T05:06:16.882Z,4.43
2019-03-23T05:08:45.291Z,4.77
2019-03-23T05:11:13.621Z,4.87
2019-03-23T05:13:42.001Z,5.30
2019-03-23T05:16:10.230Z,4.60
2019-03-23T05:18:38.582Z,4.57
2019-03-23T05:21:06.897Z,4.90
2019-03-23T05:23:35.184Z,5.30
2019-03-23T05:26:03.555Z,5.50
2019-03-23T05:28:31.999Z,5.70
2019-03-23T05:31:00.392Z,5.40
2019-03-23T05:33:28.751Z,6.17
2019-03-23T05:35:57.070Z,6.33
2019-03-23T05:38:25.421Z,5.20
2019-03-23T05:40:53.804Z,5.63
2019-03-23T05:43:22.169Z,6.00
2019-03-23T05:45:50.480Z,5.97
2019-03-23T05:48:19.887Z,6.27
2019-03-23T05:50:48.164Z,5.77
2019-03-23T05:53:16.401Z,6.80
2019-03-23T05:55:44.738Z,6.10
2019-03-23T05:58:13.107Z,5.90
2019-03-23T06:00:41.403Z,6.00
2019-03-23T06:03:09.691Z,6.90
2019-03-23T06:05:37.964Z,6.00
2019-03-23T06:08:06.474Z,6.33
2019-03-23T06:10:34.772Z,7.03
2019-03-23T06:13:03.181Z,6.50
2019-03-23T06:15:31.439Z,6.73
2019-03-23T06:17:59.768Z,5.97
2019-03-23T06:20:27.976Z,7.13
2019-03-23T06:22:56.265Z,6.17
2019-03-23T06:25:24.564Z,7.03
2019-03-23T06:27:52.882Z,6.73
2019-03-23T06:30:21.313Z,8.30
2019-03-23T06:32:49.645Z,7.50
2019-03-23T06:35:17.903Z,7.87
2019-03-23T06:37:46.337Z,7.93
2019-03-23T06:40:14.761Z,7.73
2019-03-23T06:42:43.079Z,7.70
2019-03-23T06:45:11.556Z,7.43
2019-03-23T06:47:39.839Z,7.40
2019-03-23T06:50:08.212Z,7.67
2019-03-23T06:52:36.588Z,8.60
2019-03-23T06:55:05.394Z,8.30
2019-03-23T06:57:33.907Z,7.50
2019-03-23T07:00:02.175Z,8.30
2019-03-23T07:02:30.480Z,7.17
2019-03-23T07:04:58.773Z,8.17
2019-03-23T07:07:27.119Z,7.73
2019-03-23T07:09:55.475Z,7.63
2019-03-23T07:12:23.925Z,7.93
2019-03-23T07:14:52.205Z,7.53
2019-03-23T07:17:20.572Z,8.00
2019-03-23T07:19:48.863Z,7.23
2019-03-23T07:22:17.201Z,7.30
2019-03-23T07:24:45.542Z,7.23
2019-03-23T07:27:13.853Z,7.70
2019-03-23T07:29:42.213Z,7.23
2019-03-23T07:32:10.549Z,7.37
2019-03-23T07:34:38.910Z,6.67
2019-03-23T07:37:07.288Z,7.27
2019-03-23T07:39:35.591Z,7.40
2019-03-23T07:42:04.023Z,7.47
2019-03-23T07:44:32.320Z,7.43
2019-03-23T07:47:00.605Z,7.70
2019-03-23T07:49:28.983Z,7.70
2019-03-23T07:51:57.330Z,7.50
2019-03-23T07:54:25.711Z,8.23
2019-03-23T07:56:54.090Z,7.90
2019-03-23T07:59:22.386Z,8.00
2019-03-23T08:01:50.629Z,7.60
2019-03-23T08:04:18.925Z,8.07
2019-03-23T08:06:47.248Z,8.33
2019-03-23T08:09:20.510Z,7.37
2019-03-23T08:11:45.621Z,8.03
2019-03-23T08:14:14.041Z,8.43
2019-03-23T08:16:42.509Z,7.87
2019-03-23T08:19:12.864Z,7.50
2019-03-23T08:21:41.197Z,7.53
2019-03-23T08:24:09.526Z,8.00
2019-03-23T08:26:37.941Z,7.40
2019-03-23T08:29:06.271Z,8.13
2019-03-23T08:31:34.588Z,7.40
2019-03-23T08:34:03.029Z,7.23
2019-03-23T08:36:31.330Z,8.10
2019-03-23T08:38:59.658Z,8.07
2019-03-23T08:41:28.090Z,7.40
2019-03-23T08:43:56.590Z,6.93
2019-03-23T08:46:24.975Z,7.10
2019-03-23T08:48:53.286Z,7.23
2019-03-23T08:51:21.732Z,7.33
2019-03-23T08:53:50.004Z,7.30
2019-03-23T08:56:19.262Z,7.07
2019-03-23T08:58:46.522Z,7.17
2019-03-23T09:01:16.983Z,7.87
2019-03-23T09:03:52.361Z,7.53
2019-03-23T09:06:15.367Z,6.93
2019-03-23T09:08:44.204Z,7.43
2019-03-23T09:11:20.268Z,7.17
2019-03-23T09:13:42.498Z,7.57
2019-03-23T09:16:10.854Z,7.10
2019-03-23T09:18:39.177Z,6.73
2019-03-23T09:21:07.456Z,6.83
2019-03-23T09:23:35.993Z,7.27
2019-03-23T09:26:04.294Z,7.10
2019-03-23T09:28:32.527Z,6.53
2019-03-23T09:31:00.913Z,6.33
2019-03-23T09:33:29.370Z,6.20
2019-03-23T09:35:57.757Z,5.27
2019-03-23T09:38:26.080Z,5.10
2019-03-23T09:40:54.670Z,4.80
2019-03-23T09:43:22.926Z,4.27
2019-03-23T09:45:51.409Z,4.67
2019-03-23T09:48:20.034Z,4.10
2019-03-23T09:50:48.467Z,3.97
2019-03-23T09:53:16.827Z,3.83
2019-03-23T09:55:45.201Z,3.90
2019-03-23T09:58:16.618Z,2.93
2019-03-23T10:00:44.998Z,3.53
2019-03-23T10:03:15.831Z,4.37
2019-03-23T10:05:44.137Z,3.97
2019-03-23T10:08:12.501Z,3.43
2019-03-23T10:10:43.892Z,3.20
2019-03-23T10:13:12.284Z,2.03
2019-03-23T10:15:40.724Z,1.93
2019-03-23T10:18:09.002Z,1.40
2019-03-23T10:20:37.281Z,2.20
2019-03-23T10:23:05.759Z,1.40
2019-03-23T10:25:34.140Z,1.77
2019-03-23T10:28:02.480Z,1.93
2019-03-23T10:30:30.791Z,1.70
2019-03-23T10:32:59.132Z,1.90
2019-03-23T10:35:29.729Z,1.73
2019-03-23T10:37:58.045Z,1.60
2019-03-23T10:40:32.495Z,1.87
2019-03-23T10:42:56.595Z,1.53
2019-03-23T10:45:24.916Z,1.57
2019-03-23T10:47:53.320Z,1.53
2019-03-23T10:50:21.721Z,2.43
2019-03-23T10:52:50.118Z,1.60
2019-03-23T10:55:18.476Z,1.50
2019-03-23T10:57:46.910Z,1.60
2019-03-23T11:00:16.474Z,1.63
2019-03-23T11:02:44.757Z,1.80
2019-03-23T11:05:13.136Z,1.50
2019-03-23T11:07:41.466Z,1.90
2019-03-23T11:10:09.989Z,1.80
2019-03-23T11:12:38.393Z,1.80
2019-03-23T11:15:07.252Z,1.50
2019-03-23T11:17:35.576Z,2.10
2019-03-23T11:20:10.155Z,2.07
2019-03-23T11:22:38.740Z,2.07
2019-03-23T11:25:07.275Z,2.13
2019-03-23T11:27:35.600Z,1.67
2019-03-23T11:30:04.320Z,1.90
2019-03-23T11:32:32.665Z,2.10
2019-03-23T11:35:01.029Z,1.90
2019-03-23T11:37:29.596Z,1.53
2019-03-23T11:39:58.050Z,1.60
2019-03-23T11:42:26.519Z,1.80
2019-03-23T11:44:54.912Z,1.87
2019-03-23T11:47:23.530Z,1.60
2019-03-23T11:49:51.883Z,1.73
2019-03-23T11:52:20.236Z,1.53
2019-03-23T11:54:48.641Z,1.67
2019-03-23T11:57:17.053Z,2.07
2019-03-23T11:59:45.660Z,1.87
2019-03-23T12:02:14.210Z,1.70
2019-03-23T12:04:42.515Z,1.60
2019-03-23T12:07:10.887Z,2.00
2019-03-23T12:09:39.185Z,1.50
2019-03-23T12:12:07.528Z,1.80
2019-03-23T12:14:35.832Z,1.77
2019-03-23T12:17:04.314Z,1.60
2019-03-23T12:19:32.600Z,1.50
2019-03-23T12:22:00.909Z,2.57
2019-03-23T12:24:29.265Z,1.93
2019-03-23T12:26:57.717Z,2.17
2019-03-23T12:29:26.010Z,1.90
2019-03-23T12:31:54.323Z,1.80
2019-03-23T12:34:22.629Z,1.93
2019-03-23T12:36:51.034Z,1.77
2019-03-23T12:39:19.429Z,2.03
2019-03-23T12:41:47.751Z,1.90
2019-03-23T12:44:16.057Z,1.93
2019-03-23T12:46:48.442Z,1.90
2019-03-23T12:49:14.446Z,1.73
2019-03-23T12:51:42.780Z,1.70
2019-03-23T12:54:11.088Z,1.87
2019-03-23T12:56:39.399Z,2.10
2019-03-23T12:59:07.732Z,2.13
2019-03-23T13:01:38.803Z,1.97
2019-03-23T13:04:07.120Z,2.20
2019-03-23T13:06:35.394Z,2.00
2019-03-23T13:09:04.457Z,2.20
2019-03-23T13:11:35.481Z,1.87
2019-03-23T13:14:02.873Z,2.20
2019-03-23T13:16:31.215Z,2.20
2019-03-23T13:19:02.569Z,1.93
2019-03-23T13:21:30.906Z,1.83
2019-03-23T13:23:59.255Z,2.30
2019-03-23T13:26:27.648Z,1.90
2019-03-23T13:28:55.991Z,1.87
2019-03-23T13:31:24.346Z,2.13
2019-03-23T13:33:52.734Z,2.00
2019-03-23T13:36:21.056Z,2.00
2019-03-23T13:38:49.394Z,2.07
2019-03-23T13:41:17.698Z,1.77
2019-03-23T13:43:45.984Z,2.20
2019-03-23T13:46:14.397Z,1.93
2019-03-23T13:48:42.689Z,2.27
2019-03-23T13:51:11.034Z,2.40
2019-03-23T13:53:39.551Z,2.03
2019-03-23T13:56:10.768Z,1.90
2019-03-23T13:58:39.091Z,1.90
2019-03-23T14:01:07.416Z,1.93
2019-03-23T14:03:35.812Z,2.00
2019-03-23T14:06:06.849Z,2.23
2019-03-23T14:08:35.350Z,1.93
2019-03-23T14:11:03.960Z,1.90
2019-03-23T14:13:32.349Z,2.00
2019-03-23T14:16:00.560Z,2.10
2019-03-23T14:18:28.905Z,2.03
2019-03-23T14:20:57.245Z,1.87
2019-03-23T14:23:25.722Z,2.20
2019-03-23T14:25:54.041Z,2.07
2019-03-23T14:28:22.606Z,1.87
2019-03-23T14:30:51.019Z,1.70
2019-03-23T14:33:20.617Z,1.83
2019-03-23T14:35:48.853Z,1.97
2019-03-23T14:38:18.529Z,2.13
2019-03-23T14:40:46.940Z,1.97
2019-03-23T14:43:15.258Z,1.97
2019-03-23T14:45:43.623Z,2.17
2019-03-23T14:48:11.958Z,2.53
2019-03-23T14:50:42.526Z,2.80
2019-03-23T14:53:10.286Z,2.43
2019-03-23T14:55:38.689Z,2.50
2019-03-23T14:58:07.220Z,2.67
2019-03-23T15:00:35.498Z,2.47
2019-03-23T15:03:03.875Z,2.70
2019-03-23T15:05:32.219Z,2.07
2019-03-23T15:08:00.511Z,2.20
2019-03-23T15:10:28.885Z,2.30
2019-03-23T15:12:57.201Z,1.87
2019-03-23T15:15:25.614Z,2.10
2019-03-23T15:17:53.865Z,2.00
2019-03-23T15:20:22.385Z,1.80
2019-03-23T15:22:50.722Z,1.93
2019-03-23T15:25:19.077Z,2.20
2019-03-23T15:27:47.360Z,2.37
2019-03-23T15:30:15.656Z,1.77
2019-03-23T15:32:43.955Z,1.83
2019-03-23T15:35:12.224Z,2.10
2019-03-23T15:37:40.691Z,1.37
2019-03-23T15:40:09.196Z,1.73
2019-03-23T15:42:37.587Z,1.80
2019-03-23T15:45:06.522Z,1.80
2019-03-23T15:47:37.933Z,1.73
2019-03-23T15:50:06.472Z,1.47
2019-03-23T15:52:34.842Z,1.60
2019-03-23T15:55:03.468Z,1.40
2019-03-23T15:57:31.876Z,1.73
2019-03-23T16:00:02.669Z,2.03
2019-03-23T16:02:31.065Z,1.73
2019-03-23T16:04:59.358Z,1.60
2019-03-23T16:07:29.714Z,1.67
2019-03-23T16:09:57.672Z,1.67
2019-03-23T16:12:34.486Z,1.23
2019-03-23T16:14:55.965Z,1.67
2019-03-23T16:17:24.270Z,1.40
2019-03-23T16:19:52.557Z,1.60
2019-03-23T16:22:20.990Z,2.07
2019-03-23T16:24:49.415Z,1.83
2019-03-23T16:27:19.648Z,1.53
2019-03-23T16:29:48.070Z,1.80
2019-03-23T16:32:16.339Z,1.60
2019-03-23T16:34:44.698Z,1.67
2019-03-23T16:37:12.962Z,2.03
2019-03-23T16:39:41.411Z,1.63
2019-03-23T16:42:09.888Z,2.27
2019-03-23T16:44:38.177Z,1.57
2019-03-23T16:47:06.585Z,1.73
2019-03-23T16:49:34.827Z,2.07
2019-03-23T16:52:03.136Z,1.63
2019-03-23T16:54:31.512Z,1.63
2019-03-23T16:56:59.901Z,2.00
2019-03-23T16:59:28.281Z,1.80
2019-03-23T17:01:56.737Z,1.73
2019-03-23T17:04:25.045Z,1.80
2019-03-23T17:06:53.470Z,2.40
2019-03-23T17:09:21.876Z,1.70
2019-03-23T17:11:52.582Z,1.97
2019-03-23T17:14:20.193Z,1.67
2019-03-23T17:16:48.592Z,1.77
2019-03-23T17:19:19.921Z,2.00
2019-03-23T17:21:48.266Z,2.40
2019-03-23T17:24:16.639Z,1.60
2019-03-23T17:26:46.569Z,2.03
2019-03-23T17:29:14.948Z,1.80
2019-03-23T17:31:43.246Z,2.10
2019-03-23T17:34:11.616Z,1.80
2019-03-23T17:36:39.923Z,1.97
2019-03-23T17:39:08.246Z,2.20
2019-03-23T17:41:36.620Z,1.90
2019-03-23T17:44:04.967Z,1.90
2019-03-23T17:46:33.483Z,2.00
2019-03-23T17:49:01.941Z,1.30
2019-03-23T17:51:30.370Z,2.10
2019-03-23T17:53:59.102Z,2.10
2019-03-23T17:56:27.505Z,1.90
2019-03-23T17:58:55.794Z,1.73
2019-03-23T18:01:24.143Z,2.03
2019-03-23T18:03:52.462Z,1.80
2019-03-23T18:06:20.858Z,2.10
2019-03-23T18:08:49.154Z,1.70
2019-03-23T18:11:17.419Z,1.90
2019-03-23T18:13:45.720Z,2.23
2019-03-23T18:16:14.018Z,1.63
2019-03-23T18:18:42.311Z,1.73
2019-03-23T18:21:10.709Z,1.50
2019-03-23T18:23:39.086Z,2.30
2019-03-23T18:26:07.486Z,1.97
2019-03-23T18:28:35.808Z,1.97
2019-03-23T18:31:04.333Z,1.70
2019-03-23T18:33:32.597Z,2.10
2019-03-23T18:36:00.974Z,2.10
2019-03-23T18:38:29.315Z,1.93
2019-03-23T18:40:57.844Z,1.97
2019-03-23T18:43:27.788Z,2.27
2019-03-23T18:45:56.338Z,1.60
2019-03-23T18:48:24.618Z,1.97
2019-03-23T18:50:52.923Z,1.93
2019-03-23T18:53:21.228Z,1.97
2019-03-23T18:55:49.590Z,1.60
2019-03-23T18:58:18.949Z,1.70
2019-03-23T19:00:47.273Z,1.60
2019-03-23T19:03:15.629Z,1.40
2019-03-23T19:05:44.249Z,1.50
2019-03-23T19:08:12.597Z,1.70
2019-03-23T19:10:41.062Z,2.10
2019-03-23T19:13:09.480Z,1.60
2019-03-23T19:15:37.775Z,1.67
2019-03-23T19:18:06.176Z,1.70
2019-03-23T19:20:34.451Z,1.40
2019-03-23T19:23:02.881Z,1.60
2019-03-23T19:25:31.291Z,1.67
2019-03-23T19:27:59.667Z,1.70
2019-03-23T19:30:27.970Z,1.70
2019-03-23T19:32:57.810Z,1.77
2019-03-23T19:35:26.093Z,1.80
2019-03-23T19:37:54.529Z,1.90
2019-03-23T19:40:23.061Z,2.10
2019-03-23T19:42:51.370Z,1.70
2019-03-23T19:45:19.801Z,2.00
2019-03-23T19:47:48.154Z,1.67
2019-03-23T19:50:16.657Z,1.60
2019-03-23T19:52:44.986Z,2.10
2019-03-23T19:55:13.498Z,1.57
2019-03-23T19:57:42.436Z,1.53
2019-03-23T20:00:11.595Z,1.70
2019-03-23T20:02:40.017Z,1.90
2019-03-23T20:05:10.402Z,1.87
2019-03-23T20:07:41.519Z,1.77
2019-03-23T20:10:10.213Z,1.97
2019-03-23T20:12:38.661Z,2.10
2019-03-23T20:15:08.904Z,1.87
2019-03-23T20:17:38.675Z,1.60
2019-03-23T20:20:07.504Z,1.67
2019-03-23T20:22:35.827Z,1.70
2019-03-23T20:25:04.370Z,1.47
2019-03-23T20:27:33.098Z,1.60
2019-03-23T20:30:01.455Z,1.83
2019-03-23T20:32:29.792Z,1.43
2019-03-23T20:34:58.584Z,1.70
2019-03-23T20:37:27.198Z,1.60
2019-03-23T20:39:55.833Z,1.70
2019-03-23T20:42:27.241Z,1.73
2019-03-23T20:44:55.603Z,1.90
2019-03-23T20:47:23.968Z,1.50
2019-03-23T20:49:53.174Z,2.30
2019-03-23T20:52:21.604Z,1.63
2019-03-23T20:54:50.075Z,1.60
2019-03-23T20:57:23.926Z,1.50
2019-03-23T20:59:48.382Z,1.57
2019-03-23T21:02:16.840Z,1.50
2019-03-23T21:04:45.242Z,1.57
2019-03-23T21:07:13.545Z,2.27
2019-03-23T21:09:41.973Z,1.80
2019-03-23T21:12:10.430Z,1.70
2019-03-23T21:14:38.744Z,1.60
2019-03-23T21:17:07.098Z,1.50
2019-03-23T21:19:35.513Z,1.70
2019-03-23T21:22:03.882Z,1.30
2019-03-23T21:24:32.434Z,1.43
2019-03-23T21:27:00.742Z,1.87
2019-03-23T21:29:29.036Z,1.50
2019-03-23T21:31:57.312Z,1.63
2019-03-23T21:34:25.741Z,1.77
2019-03-23T21:36:54.213Z,1.40
2019-03-23T21:39:22.581Z,1.60
2019-03-23T21:41:50.892Z,1.43
2019-03-23T21:44:19.206Z,1.23
2019-03-23T21:46:47.497Z,1.37
2019-03-23T21:49:15.803Z,1.87
2019-03-23T21:51:44.288Z,1.70
2019-03-23T21:54:12.672Z,1.47
2019-03-23T21:56:41.076Z,1.50
2019-03-23T21:59:09.402Z,1.63
2019-03-23T22:01:37.734Z,1.47
2019-03-23T22:04:06.297Z,1.37
2019-03-23T22:06:35.869Z,1.23
2019-03-23T22:09:05.686Z,1.30
2019-03-23T22:11:34.024Z,1.50
2019-03-23T22:14:02.473Z,1.63
2019-03-23T22:16:30.823Z,1.57
2019-03-23T22:18:59.126Z,1.63
2019-03-23T22:21:27.513Z,1.67
2019-03-23T22:23:55.843Z,1.60
2019-03-23T22:26:24.313Z,1.83
2019-03-23T22:28:52.613Z,1.50
2019-03-23T22:31:20.836Z,1.20
2019-03-23T22:33:50.065Z,1.23
2019-03-23T22:36:18.437Z,1.20
2019-03-23T22:38:48.156Z,1.70
2019-03-23T22:41:16.508Z,1.53
2019-03-23T22:43:44.772Z,1.27
2019-03-23T22:46:16.152Z,1.30
2019-03-23T22:48:48.496Z,1.50
2019-03-23T22:51:19.100Z,2.00
2019-03-23T22:53:47.523Z,1.13
2019-03-23T22:56:16.027Z,1.20
2019-03-23T22:58:44.307Z,1.50
2019-03-23T23:01:12.798Z,1.50
2019-03-23T23:03:41.214Z,1.70
2019-03-23T23:06:09.566Z,1.40
2019-03-23T23:08:40.335Z,1.30
2019-03-23T23:11:08.757Z,1.50
2019-03-23T23:13:37.124Z,1.20
2019-03-23T23:16:05.515Z,1.00
2019-03-23T23:18:33.917Z,1.40
2019-03-23T23:21:02.272Z,1.20
2019-03-23T23:23:30.631Z,1.37
2019-03-23T23:25:58.944Z,1.40
2019-03-23T23:28:27.241Z,1.10
2019-03-23T23:30:55.638Z,1.20
2019-03-23T23:33:23.944Z,1.20
2019-03-23T23:35:52.274Z,1.47
2019-03-23T23:38:20.601Z,1.20
2019-03-23T23:40:48.919Z,1.03
2019-03-23T23:43:17.180Z,1.13
2019-03-23T23:45:45.597Z,1.30
2019-03-23T23:48:13.864Z,1.17
2019-03-23T23:50:42.236Z,1.27
2019-03-23T23:53:10.617Z,1.40
2019-03-23T23:55:38.899Z,1.03
2019-03-23T23:58:07.244Z,1.10
